createdAt,value
2023-03-01T00:01:21.188Z,82.77
2023-03-01T00:03:49.762Z,89.17
2023-03-01T00:06:18.365Z,83.37
2023-03-01T00:08:46.971Z,84.13
2023-03-01T00:11:18.119Z,77.63
2023-03-01T00:13:48.198Z,83.27
2023-03-01T00:16:18.483Z,80.70
2023-03-01T00:18:46.919Z,88.93
2023-03-01T00:21:15.480Z,79.30
2023-03-01T00:23:43.632Z,88.50
2023-03-01T00:26:14.397Z,79.00
2023-03-01T00:28:44.580Z,78.87
2023-03-01T00:31:14.707Z,78.80
2023-03-01T00:33:43.227Z,75.53
2023-03-01T00:36:13.291Z,77.17
2023-03-01T00:38:43.131Z,68.17
2023-03-01T00:41:16.411Z,67.07
2023-03-01T00:43:46.790Z,74.67
2023-03-01T00:46:17.613Z,82.20
2023-03-01T00:48:45.974Z,78.10
2023-03-01T00:51:16.292Z,72.03
2023-03-01T00:53:45.113Z,74.27
2023-03-01T00:56:15.478Z,72.57
2023-03-01T00:58:45.286Z,64.17
2023-03-01T01:01:19.171Z,72.37
2023-03-01T01:03:49.237Z,70.53
2023-03-01T01:06:19.300Z,70.93
2023-03-01T01:08:47.639Z,68.60
2023-03-01T01:11:16.877Z,76.53
2023-03-01T01:13:48.148Z,71.10
2023-03-01T01:16:17.251Z,67.63
2023-03-01T01:18:47.055Z,63.87
2023-03-01T01:21:17.870Z,78.47
2023-03-01T01:23:47.481Z,69.50
2023-03-01T01:26:17.173Z,64.73
2023-03-01T01:28:47.260Z,69.03
2023-03-01T01:31:15.978Z,78.83
2023-03-01T01:33:44.245Z,66.57
2023-03-01T01:36:13.496Z,64.37
2023-03-01T01:38:43.177Z,60.93
2023-03-01T01:41:13.441Z,71.33
2023-03-01T01:43:43.530Z,61.63
2023-03-01T01:46:23.733Z,71.37
2023-03-01T01:48:57.947Z,68.10
2023-03-01T01:51:29.958Z,68.57
2023-03-01T01:54:03.103Z,62.77
2023-03-01T01:56:32.300Z,69.37
2023-03-01T01:59:00.957Z,65.50
2023-03-01T02:01:30.537Z,68.00
2023-03-01T02:03:58.849Z,65.73
2023-03-01T02:06:32.050Z,67.07
2023-03-01T02:09:03.073Z,69.03
2023-03-01T02:11:34.507Z,70.37
2023-03-01T02:14:02.701Z,67.27
2023-03-01T02:16:32.962Z,77.33
2023-03-01T02:19:01.510Z,70.40
2023-03-01T02:21:40.176Z,75.73
2023-03-01T02:24:20.386Z,82.93
2023-03-01T02:26:54.743Z,68.27
2023-03-01T02:29:25.204Z,67.83
2023-03-01T02:31:57.536Z,62.10
2023-03-01T02:34:27.235Z,78.50
2023-03-01T02:36:58.896Z,76.20
2023-03-01T02:39:31.060Z,66.30
2023-03-01T02:42:00.016Z,63.63
2023-03-01T02:44:29.584Z,67.97
2023-03-01T02:46:59.573Z,62.90
2023-03-01T02:49:29.276Z,67.03
2023-03-01T02:52:23.599Z,64.83
2023-03-01T02:54:58.132Z,69.73
2023-03-01T02:57:28.367Z,69.67
2023-03-01T03:00:01.712Z,69.47
2023-03-01T03:02:41.301Z,63.90
2023-03-01T03:05:12.784Z,76.00
2023-03-01T03:07:42.544Z,67.40
2023-03-01T03:10:14.083Z,72.20
2023-03-01T03:12:42.875Z,63.40
2023-03-01T03:15:13.746Z,71.57
2023-03-01T03:17:45.246Z,66.57
2023-03-01T03:20:20.131Z,71.70
2023-03-01T03:22:48.721Z,72.47
2023-03-01T03:25:17.987Z,70.73
2023-03-01T03:27:48.138Z,68.97
2023-03-01T03:30:19.979Z,57.67
2023-03-01T03:32:53.367Z,77.23
2023-03-01T03:35:23.433Z,64.53
2023-03-01T03:38:03.699Z,66.90
2023-03-01T03:40:33.606Z,55.70
2023-03-01T03:43:02.222Z,58.43
2023-03-01T03:45:34.300Z,64.67
2023-03-01T03:48:02.846Z,62.20
2023-03-01T03:50:31.333Z,76.00
2023-03-01T03:52:59.492Z,67.23
2023-03-01T03:55:31.552Z,64.10
2023-03-01T03:58:03.285Z,77.07
2023-03-01T04:00:32.954Z,60.43
2023-03-01T04:03:01.764Z,64.60
2023-03-01T04:05:30.224Z,60.90
2023-03-01T04:08:03.132Z,69.60
2023-03-01T04:10:33.286Z,64.97
2023-03-01T04:13:01.435Z,64.80
2023-03-01T04:15:30.094Z,72.00
2023-03-01T04:18:00.064Z,71.37
2023-03-01T04:20:30.613Z,70.63
2023-03-01T04:23:11.458Z,59.83
2023-03-01T04:25:41.215Z,68.47
2023-03-01T04:28:10.006Z,67.47
2023-03-01T04:30:38.806Z,66.83
2023-03-01T04:33:10.509Z,61.60
2023-03-01T04:35:39.672Z,66.40
2023-03-01T04:38:08.159Z,64.20
2023-03-01T04:40:36.545Z,61.93
2023-03-01T04:43:06.005Z,61.60
2023-03-01T04:45:36.651Z,70.30
2023-03-01T04:48:05.827Z,64.73
2023-03-01T04:50:35.403Z,60.93
2023-03-01T04:53:03.557Z,56.37
2023-03-01T04:55:32.518Z,60.67
2023-03-01T04:58:00.801Z,60.03
2023-03-01T05:00:29.002Z,66.13
2023-03-01T05:03:00.284Z,56.70
2023-03-01T05:05:30.446Z,58.30
2023-03-01T05:08:01.437Z,62.37
2023-03-01T05:10:32.220Z,61.10
2023-03-01T05:13:01.840Z,62.53
2023-03-01T05:15:33.019Z,61.07
2023-03-01T05:18:02.473Z,57.60
2023-03-01T05:20:31.500Z,55.37
2023-03-01T05:23:06.260Z,60.50
2023-03-01T05:25:35.844Z,60.80
2023-03-01T05:28:05.388Z,55.37
2023-03-01T05:30:34.813Z,48.33
2023-03-01T05:33:03.900Z,59.80
2023-03-01T05:35:34.609Z,54.93
2023-03-01T05:38:04.199Z,65.60
2023-03-01T05:40:32.392Z,67.13
2023-03-01T05:43:00.585Z,66.10
2023-03-01T05:45:29.282Z,67.80
2023-03-01T05:47:57.482Z,62.60
2023-03-01T05:50:28.016Z,64.07
2023-03-01T05:53:01.199Z,62.87
2023-03-01T05:55:32.067Z,62.37
2023-03-01T05:58:01.841Z,66.30
2023-03-01T06:00:31.240Z,65.00
2023-03-01T06:03:00.763Z,60.40
2023-03-01T06:05:29.694Z,57.90
2023-03-01T06:08:00.476Z,69.73
2023-03-01T06:10:30.064Z,71.10
2023-03-01T06:12:58.848Z,60.57
2023-03-01T06:15:27.768Z,65.07
2023-03-01T06:17:59.663Z,65.83
2023-03-01T06:20:30.226Z,61.20
2023-03-01T06:22:58.835Z,58.57
2023-03-01T06:25:28.419Z,58.93
2023-03-01T06:27:58.260Z,59.80
2023-03-01T06:30:28.152Z,60.97
2023-03-01T06:33:02.387Z,60.63
2023-03-01T06:35:32.177Z,58.53
2023-03-01T06:38:01.686Z,57.17
2023-03-01T06:40:30.413Z,62.80
2023-03-01T06:43:00.406Z,65.90
2023-03-01T06:45:28.652Z,66.20
2023-03-01T06:48:04.633Z,62.27
2023-03-01T06:50:32.909Z,62.93
2023-03-01T06:53:01.154Z,68.90
2023-03-01T06:55:29.336Z,63.80
2023-03-01T06:57:59.278Z,66.27
2023-03-01T07:00:28.066Z,65.00
2023-03-01T07:02:56.406Z,70.07
2023-03-01T07:05:24.662Z,70.67
2023-03-01T07:07:52.788Z,68.40
2023-03-01T07:10:21.091Z,70.57
2023-03-01T07:12:49.243Z,67.43
2023-03-01T07:15:19.068Z,63.90
2023-03-01T07:17:48.942Z,69.60
2023-03-01T07:20:17.267Z,59.27
2023-03-01T07:22:45.443Z,58.80
2023-03-01T07:25:13.742Z,71.17
2023-03-01T07:27:41.881Z,68.20
2023-03-01T07:30:11.355Z,70.30
2023-03-01T07:32:41.023Z,70.83
2023-03-01T07:35:09.993Z,66.87
2023-03-01T07:37:38.177Z,73.27
2023-03-01T07:40:07.468Z,65.03
2023-03-01T07:42:35.614Z,63.63
2023-03-01T07:45:03.786Z,71.00
2023-03-01T07:47:31.942Z,71.27
2023-03-01T07:50:02.214Z,64.57
2023-03-01T07:52:30.648Z,62.20
2023-03-01T07:54:59.296Z,70.13
2023-03-01T07:57:27.635Z,67.27
2023-03-01T07:59:55.757Z,65.67
2023-03-01T08:02:24.060Z,61.10
2023-03-01T08:04:52.215Z,71.13
2023-03-01T08:07:21.735Z,62.27
2023-03-01T08:09:49.913Z,67.53
2023-03-01T08:12:18.371Z,58.43
2023-03-01T08:14:46.532Z,62.20
2023-03-01T08:17:16.213Z,60.70
2023-03-01T08:19:45.621Z,59.10
2023-03-01T08:22:14.118Z,56.93
2023-03-01T08:24:43.624Z,59.03
2023-03-01T08:27:13.203Z,61.60
2023-03-01T08:29:41.380Z,60.50
2023-03-01T08:32:09.741Z,50.27
2023-03-01T08:34:38.048Z,48.93
2023-03-01T08:37:06.264Z,53.10
2023-03-01T08:39:34.659Z,51.40
2023-03-01T08:42:04.253Z,52.67
2023-03-01T08:44:32.397Z,50.10
2023-03-01T08:47:01.018Z,56.47
2023-03-01T08:49:29.171Z,52.93
2023-03-01T08:51:57.314Z,50.43
2023-03-01T08:54:25.622Z,45.97
2023-03-01T08:56:53.773Z,54.70
2023-03-01T08:59:23.295Z,55.43
2023-03-01T09:01:51.501Z,54.13
2023-03-01T09:04:19.736Z,52.77
2023-03-01T09:06:47.917Z,44.20
2023-03-01T09:09:17.925Z,50.70
2023-03-01T09:11:47.347Z,44.80
2023-03-01T09:14:16.380Z,54.13
2023-03-01T09:16:46.131Z,48.40
2023-03-01T09:19:14.639Z,48.87
2023-03-01T09:21:48.590Z,46.23
2023-03-01T09:24:17.204Z,60.93
2023-03-01T09:26:48.466Z,48.07
2023-03-01T09:29:18.404Z,48.50
2023-03-01T09:31:48.025Z,48.50
2023-03-01T09:34:17.172Z,50.53
2023-03-01T09:36:45.319Z,46.53
2023-03-01T09:39:13.879Z,45.67
2023-03-01T09:41:49.317Z,47.90
2023-03-01T09:44:33.274Z,48.97
2023-03-01T09:47:03.243Z,50.07
2023-03-01T09:49:33.884Z,49.07
2023-03-01T09:52:11.730Z,52.80
2023-03-01T09:54:39.962Z,48.53
2023-03-01T09:57:17.680Z,47.03
2023-03-01T09:59:58.260Z,49.17
2023-03-01T10:02:33.703Z,49.20
2023-03-01T10:05:15.068Z,48.97
2023-03-01T10:07:50.699Z,51.70
2023-03-01T10:10:29.963Z,50.23
2023-03-01T10:12:59.280Z,53.43
2023-03-01T10:15:36.930Z,45.83
2023-03-01T10:18:12.018Z,48.33
2023-03-01T10:20:48.670Z,45.50
2023-03-01T10:23:16.869Z,57.10
2023-03-01T10:25:54.053Z,45.03
2023-03-01T10:28:31.811Z,43.30
2023-03-01T10:31:01.318Z,44.90
2023-03-01T10:33:34.441Z,45.13
2023-03-01T10:36:02.698Z,45.87
2023-03-01T10:38:33.574Z,48.73
2023-03-01T10:41:09.420Z,43.27
2023-03-01T10:43:47.178Z,46.23
2023-03-01T10:46:26.010Z,46.70
2023-03-01T10:49:17.185Z,43.70
2023-03-01T10:51:47.189Z,45.37
2023-03-01T10:54:20.837Z,47.90
2023-03-01T10:56:52.138Z,45.23
2023-03-01T10:59:28.723Z,44.67
2023-03-01T11:02:24.903Z,49.37
2023-03-01T11:05:18.533Z,42.77
2023-03-01T11:07:51.384Z,39.33
2023-03-01T11:10:22.096Z,46.03
2023-03-01T11:12:50.518Z,42.17
2023-03-01T11:15:25.930Z,44.50
2023-03-01T11:18:02.882Z,43.33
2023-03-01T11:20:39.647Z,51.10
2023-03-01T11:23:12.229Z,48.77
2023-03-01T11:25:44.030Z,42.50
2023-03-01T11:28:16.423Z,43.17
2023-03-01T11:31:05.578Z,42.67
2023-03-01T11:33:41.838Z,42.07
2023-03-01T11:36:22.163Z,37.13
2023-03-01T11:38:50.880Z,43.80
2023-03-01T11:41:23.402Z,41.83
2023-03-01T11:43:56.181Z,43.93
2023-03-01T11:46:53.499Z,45.27
2023-03-01T11:49:46.483Z,44.30
2023-03-01T11:52:24.581Z,46.53
2023-03-01T11:55:09.757Z,39.57
2023-03-01T11:57:53.808Z,43.47
2023-03-01T12:00:46.606Z,47.53
2023-03-01T12:03:34.055Z,43.37
2023-03-01T12:06:32.598Z,45.93
2023-03-01T12:09:19.394Z,48.33
2023-03-01T12:12:05.685Z,44.87
2023-03-01T12:14:53.081Z,43.27
2023-03-01T12:17:41.680Z,43.07
2023-03-01T12:20:27.741Z,38.77
2023-03-01T12:23:23.008Z,47.07
2023-03-01T12:25:57.444Z,36.90
2023-03-01T12:28:48.880Z,37.37
2023-03-01T12:31:57.779Z,41.87
2023-03-01T12:34:42.086Z,39.77
2023-03-01T12:37:33.247Z,35.00
2023-03-01T12:40:40.876Z,37.20
2023-03-01T12:43:23.015Z,37.17
2023-03-01T12:46:03.126Z,38.47
2023-03-01T12:48:42.255Z,38.77
2023-03-01T12:51:15.262Z,37.83
2023-03-01T12:53:47.350Z,38.73
2023-03-01T12:56:20.070Z,38.93
2023-03-01T12:59:02.471Z,36.17
2023-03-01T13:01:41.316Z,37.90
2023-03-01T13:04:20.268Z,35.87
2023-03-01T13:06:58.681Z,37.33
2023-03-01T13:09:33.907Z,36.90
2023-03-01T13:12:04.425Z,36.57
2023-03-01T13:14:48.318Z,29.20
2023-03-01T13:17:34.913Z,34.50
2023-03-01T13:20:05.092Z,37.00
2023-03-01T13:22:39.699Z,38.63
2023-03-01T13:25:18.861Z,40.27
2023-03-01T13:27:48.534Z,33.23
2023-03-01T13:30:45.675Z,32.83
2023-03-01T13:33:48.237Z,31.90
2023-03-01T13:36:48.961Z,33.50
2023-03-01T13:39:35.837Z,36.10
2023-03-01T13:42:04.228Z,32.07
2023-03-01T13:44:37.140Z,35.10
2023-03-01T13:47:20.067Z,37.37
2023-03-01T13:49:52.204Z,40.30
2023-03-01T13:52:42.515Z,33.37
2023-03-01T13:55:20.822Z,34.93
2023-03-01T13:57:55.518Z,35.47
2023-03-01T14:00:38.798Z,35.80
2023-03-01T14:03:13.694Z,38.27
2023-03-01T14:05:42.987Z,38.57
2023-03-01T14:08:26.749Z,37.30
2023-03-01T14:11:25.256Z,36.00
2023-03-01T14:14:11.059Z,33.70
2023-03-01T14:16:47.309Z,32.63
2023-03-01T14:19:32.703Z,32.77
2023-03-01T14:22:06.870Z,30.33
2023-03-01T14:24:37.606Z,27.83
2023-03-01T14:27:06.574Z,28.80
2023-03-01T14:29:38.025Z,30.33
2023-03-01T14:32:15.066Z,31.15
2023-03-01T14:34:50.061Z,32.13
2023-03-01T14:37:23.611Z,29.13
2023-03-01T14:39:52.250Z,34.80
2023-03-01T14:42:21.590Z,29.98
2023-03-01T14:44:52.273Z,34.33
2023-03-01T14:47:29.060Z,32.78
2023-03-01T14:50:01.704Z,30.27
2023-03-01T14:52:37.023Z,32.10
2023-03-01T14:55:08.234Z,32.47
2023-03-01T14:57:36.433Z,30.13
2023-03-01T15:00:08.779Z,32.20
2023-03-01T15:02:37.429Z,34.83
2023-03-01T15:05:09.225Z,32.00
2023-03-01T15:07:40.766Z,38.57
2023-03-01T15:10:17.022Z,32.80
2023-03-01T15:12:45.161Z,35.07
2023-03-01T15:15:36.054Z,38.37
2023-03-01T15:18:07.549Z,36.30
2023-03-01T15:20:37.434Z,38.07
2023-03-01T15:23:06.174Z,31.90
2023-03-01T15:25:35.547Z,33.97
2023-03-01T15:28:04.685Z,33.37
2023-03-01T15:30:38.332Z,35.10
2023-03-01T15:33:30.534Z,32.53
2023-03-01T15:36:01.203Z,38.60
2023-03-01T15:38:33.000Z,40.27
2023-03-01T15:41:02.904Z,34.13
2023-03-01T15:43:42.950Z,35.87
2023-03-01T15:46:26.128Z,41.67
2023-03-01T15:48:57.482Z,34.20
2023-03-01T15:51:32.096Z,46.97
2023-03-01T15:54:02.931Z,49.13
2023-03-01T15:56:31.376Z,48.10
2023-03-01T15:59:04.572Z,46.03
2023-03-01T16:01:35.238Z,41.30
2023-03-01T16:04:03.617Z,43.40
2023-03-01T16:06:33.732Z,35.90
2023-03-01T16:09:03.489Z,35.57
2023-03-01T16:11:33.510Z,34.93
2023-03-01T16:14:01.724Z,40.40
2023-03-01T16:16:31.105Z,52.37
2023-03-01T16:18:59.584Z,59.10
2023-03-01T16:21:28.483Z,121.00
2023-03-01T16:23:58.236Z,76.43
2023-03-01T16:26:26.400Z,52.50
2023-03-01T16:28:57.556Z,50.87
2023-03-01T16:31:28.054Z,45.93
2023-03-01T16:33:56.972Z,59.90
2023-03-01T16:36:26.559Z,57.67
2023-03-01T16:38:55.054Z,68.37
2023-03-01T16:41:25.684Z,78.53
2023-03-01T16:43:53.875Z,66.33
2023-03-01T16:46:24.293Z,88.87
2023-03-01T16:48:53.260Z,86.33
2023-03-01T16:51:22.258Z,86.03
2023-03-01T16:53:50.518Z,85.13
2023-03-01T16:56:19.559Z,97.53
2023-03-01T16:58:49.239Z,87.23
2023-03-01T17:01:19.113Z,81.97
2023-03-01T17:03:49.708Z,81.30
2023-03-01T17:06:21.469Z,94.03
2023-03-01T17:08:49.832Z,71.53
2023-03-01T17:11:19.691Z,63.20
2023-03-01T17:13:49.617Z,66.10
2023-03-01T17:16:20.364Z,73.63
2023-03-01T17:18:48.847Z,78.30
2023-03-01T17:21:17.724Z,74.93
2023-03-01T17:23:46.683Z,79.20
2023-03-01T17:26:14.961Z,78.80
2023-03-01T17:28:44.495Z,63.53
2023-03-01T17:31:14.054Z,54.93
2023-03-01T17:33:42.167Z,52.77
2023-03-01T17:36:10.383Z,50.93
2023-03-01T17:38:38.640Z,49.37
2023-03-01T17:41:06.869Z,51.93
2023-03-01T17:43:35.907Z,51.47
2023-03-01T17:46:04.211Z,46.30
2023-03-01T17:48:33.785Z,48.67
2023-03-01T17:51:02.029Z,46.60
2023-03-01T17:53:30.179Z,50.07
2023-03-01T17:56:03.236Z,43.63
2023-03-01T17:58:32.010Z,48.30
2023-03-01T18:01:09.660Z,47.30
2023-03-01T18:03:39.178Z,45.63
2023-03-01T18:06:13.057Z,48.93
2023-03-01T18:08:41.170Z,46.37
2023-03-01T18:11:09.893Z,52.27
2023-03-01T18:13:38.308Z,47.97
2023-03-01T18:16:07.628Z,46.70
2023-03-01T18:18:35.815Z,47.63
2023-03-01T18:21:05.869Z,53.73
2023-03-01T18:23:35.172Z,51.67
2023-03-01T18:26:05.413Z,57.93
2023-03-01T18:28:34.444Z,50.33
2023-03-01T18:31:04.969Z,56.63
2023-03-01T18:33:33.780Z,58.60
2023-03-01T18:36:02.414Z,59.13
2023-03-01T18:38:32.201Z,60.80
2023-03-01T18:41:00.363Z,58.97
2023-03-01T18:43:29.068Z,71.40
2023-03-01T18:45:59.117Z,74.20
2023-03-01T18:48:27.920Z,74.93
2023-03-01T18:50:56.583Z,67.83
2023-03-01T18:53:24.771Z,72.93
2023-03-01T18:55:54.318Z,56.77
2023-03-01T18:58:22.447Z,56.07
2023-03-01T19:00:50.638Z,60.73
2023-03-01T19:03:18.745Z,64.33
2023-03-01T19:05:47.235Z,63.80
2023-03-01T19:08:15.358Z,65.83
2023-03-01T19:10:43.519Z,66.80
2023-03-01T19:13:13.050Z,68.67
2023-03-01T19:15:41.229Z,68.33
2023-03-01T19:18:09.717Z,76.20
2023-03-01T19:20:39.437Z,78.30
2023-03-01T19:23:08.376Z,78.37
2023-03-01T19:25:36.860Z,81.10
2023-03-01T19:28:05.246Z,91.20
2023-03-01T19:30:34.757Z,117.37
2023-03-01T19:33:02.936Z,95.93
2023-03-01T19:35:31.122Z,103.60
2023-03-01T19:37:59.253Z,97.53
2023-03-01T19:40:27.506Z,108.37
2023-03-01T19:42:55.657Z,112.87
2023-03-01T19:45:32.968Z,114.37
2023-03-01T19:48:03.002Z,111.87
2023-03-01T19:50:31.114Z,104.37
2023-03-01T19:52:59.290Z,123.93
2023-03-01T19:55:27.549Z,112.83
2023-03-01T19:57:55.830Z,108.40
2023-03-01T20:00:24.086Z,114.60
2023-03-01T20:02:52.346Z,112.20
2023-03-01T20:05:22.099Z,112.87
2023-03-01T20:07:51.099Z,110.83
2023-03-01T20:10:19.938Z,106.13
2023-03-01T20:12:48.200Z,112.03
2023-03-01T20:15:16.608Z,107.67
2023-03-01T20:17:44.908Z,117.87
2023-03-01T20:20:13.677Z,104.20
2023-03-01T20:22:44.818Z,93.97
2023-03-01T20:25:13.383Z,112.90
2023-03-01T20:27:41.663Z,105.23
2023-03-01T20:30:11.243Z,108.70
2023-03-01T20:32:39.731Z,102.13
2023-03-01T20:35:08.977Z,97.93
2023-03-01T20:37:37.477Z,97.77
2023-03-01T20:40:09.625Z,104.30
2023-03-01T20:42:37.738Z,93.87
2023-03-01T20:45:06.867Z,99.63
2023-03-01T20:47:35.002Z,95.23
2023-03-01T20:50:04.192Z,100.20
2023-03-01T20:52:42.273Z,91.70
2023-03-01T20:55:15.731Z,94.07
2023-03-01T20:57:43.993Z,87.50
2023-03-01T21:00:13.179Z,108.03
2023-03-01T21:02:41.975Z,104.10
2023-03-01T21:05:10.786Z,94.63
2023-03-01T21:07:38.947Z,103.03
2023-03-01T21:10:07.633Z,125.43
2023-03-01T21:12:37.374Z,125.57
2023-03-01T21:15:06.358Z,126.67
2023-03-01T21:17:34.802Z,113.57
2023-03-01T21:20:05.964Z,120.70
2023-03-01T21:22:37.208Z,105.50
2023-03-01T21:25:06.253Z,118.90
2023-03-01T21:27:44.737Z,127.03
2023-03-01T21:30:14.137Z,123.93
2023-03-01T21:32:48.263Z,115.50
2023-03-01T21:35:16.992Z,130.23
2023-03-01T21:37:45.154Z,130.20
2023-03-01T21:40:15.418Z,143.73
2023-03-01T21:42:52.531Z,140.57
2023-03-01T21:45:22.478Z,166.87
2023-03-01T21:47:53.212Z,154.63
2023-03-01T21:50:34.344Z,149.33
2023-03-01T21:53:06.342Z,152.50
2023-03-01T21:55:35.276Z,163.63
2023-03-01T21:58:04.828Z,160.47
2023-03-01T22:00:33.251Z,153.23
2023-03-01T22:03:01.391Z,141.77
2023-03-01T22:05:29.538Z,154.60
2023-03-01T22:07:57.679Z,150.30
2023-03-01T22:10:29.332Z,156.40
2023-03-01T22:12:58.707Z,161.47
2023-03-01T22:15:29.064Z,146.93
2023-03-01T22:17:57.446Z,143.07
2023-03-01T22:20:25.579Z,153.03
2023-03-01T22:22:53.734Z,157.03
2023-03-01T22:25:21.901Z,155.13
2023-03-01T22:27:50.054Z,143.47
2023-03-01T22:30:18.451Z,159.30
2023-03-01T22:32:48.051Z,165.07
2023-03-01T22:35:16.288Z,161.23
2023-03-01T22:37:44.425Z,173.40
2023-03-01T22:40:13.065Z,162.17
2023-03-01T22:42:41.262Z,155.50
2023-03-01T22:45:10.086Z,159.00
2023-03-01T22:47:38.746Z,164.90
2023-03-01T22:50:10.349Z,157.40
2023-03-01T22:52:39.751Z,163.43
2023-03-01T22:55:09.330Z,160.73
2023-03-01T22:57:37.506Z,153.33
2023-03-01T23:00:08.064Z,158.17
2023-03-01T23:02:36.500Z,149.07
2023-03-01T23:05:04.798Z,154.90
2023-03-01T23:07:34.480Z,141.30
2023-03-01T23:10:02.626Z,161.57
2023-03-01T23:12:31.102Z,157.50
2023-03-01T23:14:59.266Z,156.57
2023-03-01T23:17:27.450Z,150.57
2023-03-01T23:19:55.579Z,143.63
2023-03-01T23:22:23.739Z,141.93
2023-03-01T23:24:53.414Z,150.80
2023-03-01T23:27:21.776Z,164.97
2023-03-01T23:29:52.890Z,159.70
2023-03-01T23:32:21.098Z,129.23
2023-03-01T23:34:49.299Z,155.03
2023-03-01T23:37:17.424Z,153.13
2023-03-01T23:39:45.515Z,159.80
2023-03-01T23:42:15.053Z,166.27
2023-03-01T23:44:43.367Z,164.90
2023-03-01T23:47:14.556Z,265.23
2023-03-01T23:49:42.758Z,201.73
2023-03-01T23:52:13.343Z,196.90
2023-03-01T23:54:41.484Z,180.57
2023-03-01T23:57:09.606Z,186.30
2023-03-01T23:59:40.920Z,190.63
